Pagina principale
METAR-TAF:

METAR-TAF

Aeroporti :

Lahr, Germania

latitudine: 48-22-09N, longitudine: 007-49-40E, altezza: 156 m

Osservazione

Il bollettino è stato emesso 1 ora e 14 minuti fa, alle 08:50 UTC
Vento 1 kt da direzioni variabili
Temperature -2°C
Umidità 93%
Pressione 1024 hPa
Visibilità: 0650 m
Nuvoloso ad un'altezza di 100 ft
Nuvoloso ad un'altezza di 6400 ft
nebbia che ghiaccia

METAR: EDTL 120850Z VRB01KT 0650 R21/1100N FZFG BKN001 BKN064 M02/M03 Q1024

Ora: 11:04 (10:04 UTC)

Previsione

Il bollettino è stato emesso 2 ore e 4 minuti fa, alle 08:00 UTC
Previsione valida dal 12 alle 09 UTC al 12 alle 18 UTC
Vento 3 kt da direzioni variabili
Visibilità: 0200 m
Cielo coperto ad un'altezza di 100 ft
nebbia che ghiaccia
Evoluzione graduale
dal 12 alle 09 UTC al 12 alle 12 UTC
Vento 6 kt da nord/nord-est
Visibilità: 6000 m
Poco nuvoloso ad un'altezza di 100 ft

TAF: EDTL 120800Z 1209/1218 VRB03KT 0200 FZFG OVC001 BECMG 1209/1212 03006KT 6000 NSW FEW001

Osservazioni e previsioni meteorologiche di più di 4000 aeroporti (messaggi METAR e TAF).

Le stazioni disponibili sono rappresentate dai dischi gialli e rossi sulla carta.

Puntare il mouse per vedere il nome della stazione.

Clicca sopra per visualizzare le osservazioni e previsioni meteorologiche.

Per cambiare la mappa : fare clic sui pulsanti verdi con una croce nera per ingrandire, il pulsante verde con un trattino per diminuire, o sulla freccia verde per le mappe adiacenti.


METAR-TAF: